createdAt,value
2022-07-27T00:04:13.542Z,17.67
2022-07-27T00:09:15.996Z,16.68
2022-07-27T00:14:15.311Z,16.68
2022-07-27T00:19:16.571Z,17.67
2022-07-27T00:24:18.694Z,17.50
2022-07-27T00:29:17.818Z,17.67
2022-07-27T00:34:20.916Z,16.85
2022-07-27T00:39:21.043Z,17.02
2022-07-27T00:44:20.206Z,17.19
2022-07-27T00:49:21.435Z,17.19
2022-07-27T00:54:22.592Z,17.02
2022-07-27T00:59:23.703Z,17.19
2022-07-27T01:04:24.815Z,17.35
2022-07-27T01:09:24.606Z,17.19
2022-07-27T01:14:27.975Z,17.35
2022-07-27T01:19:25.948Z,17.35
2022-07-27T01:24:27.061Z,17.19
2022-07-27T01:29:29.242Z,17.19
2022-07-27T01:34:28.344Z,17.19
2022-07-27T01:39:30.497Z,17.19
2022-07-27T01:44:29.604Z,17.02
2022-07-27T01:49:30.745Z,17.02
2022-07-27T01:54:32.000Z,16.85
2022-07-27T01:59:32.126Z,17.02
2022-07-27T02:04:31.232Z,17.19
2022-07-27T02:09:32.375Z,17.19
2022-07-27T02:14:33.507Z,17.02
2022-07-27T02:19:35.626Z,18.01
2022-07-27T02:24:34.729Z,18.01
2022-07-27T02:29:35.894Z,17.84
2022-07-27T02:34:37.049Z,18.01
2022-07-27T02:39:38.231Z,18.18
2022-07-27T02:44:40.330Z,18.18
2022-07-27T02:49:40.478Z,18.18
2022-07-27T02:54:39.606Z,18.18
2022-07-27T02:59:42.754Z,18.18
2022-07-27T03:04:42.943Z,18.18
2022-07-27T03:09:42.133Z,18.18
2022-07-27T03:14:44.285Z,18.18
2022-07-27T03:19:42.401Z,18.35
2022-07-27T03:24:44.621Z,17.84
2022-07-27T03:29:44.756Z,18.01
2022-07-27T03:34:43.926Z,18.01
2022-07-27T03:39:45.035Z,18.01
2022-07-27T03:44:46.144Z,17.84
2022-07-27T03:49:48.267Z,17.67
2022-07-27T03:54:47.384Z,17.67
2022-07-27T03:59:48.544Z,17.50
2022-07-27T04:04:51.646Z,17.50
2022-07-27T04:09:52.765Z,17.14
2022-07-27T04:14:51.873Z,17.14
2022-07-27T04:19:54.984Z,17.14
2022-07-27T04:24:55.091Z,16.97
2022-07-27T04:29:54.193Z,17.14
2022-07-27T04:34:56.289Z,16.97
2022-07-27T04:39:55.396Z,16.60
2022-07-27T04:44:56.487Z,16.05
2022-07-27T04:49:58.592Z,16.05
2022-07-27T04:54:58.706Z,15.47
2022-07-27T04:59:57.825Z,16.44
2022-07-27T05:05:00.940Z,16.24
2022-07-27T05:10:00.064Z,16.44
2022-07-27T05:15:02.170Z,16.24
2022-07-27T05:20:03.330Z,16.83
2022-07-27T05:25:03.461Z,16.64
2022-07-27T05:30:02.595Z,16.83
2022-07-27T05:35:03.680Z,16.64
2022-07-27T05:40:04.792Z,15.64
2022-07-27T05:45:05.916Z,15.22
2022-07-27T05:50:10.028Z,15.22
2022-07-27T05:55:11.163Z,15.01
2022-07-27T06:00:09.272Z,15.01
2022-07-27T06:05:15.045Z,15.97
2022-07-27T06:10:09.330Z,15.54
2022-07-27T06:15:08.436Z,14.36
2022-07-27T06:20:09.624Z,15.32
2022-07-27T06:25:10.732Z,15.54
2022-07-27T06:30:12.864Z,15.32
2022-07-27T06:35:12.974Z,15.09
2022-07-27T06:40:13.171Z,14.36
2022-07-27T06:45:13.380Z,14.58
2022-07-27T06:50:14.511Z,15.54
2022-07-27T06:55:13.595Z,15.54
2022-07-27T07:00:15.716Z,15.76
2022-07-27T07:05:14.820Z,15.32
2022-07-27T07:10:15.970Z,15.32
2022-07-27T07:15:17.082Z,15.54
2022-07-27T07:20:18.199Z,15.32
2022-07-27T07:25:20.321Z,15.09
2022-07-27T07:30:20.426Z,15.32
2022-07-27T07:35:19.537Z,15.09
2022-07-27T07:45:21.675Z,15.59
2022-07-27T07:50:20.891Z,16.05
2022-07-27T07:55:22.022Z,15.82
2022-07-27T08:00:24.336Z,15.35
2022-07-27T08:05:23.448Z,15.35
2022-07-27T08:10:23.593Z,15.35
2022-07-27T08:15:29.751Z,15.35
2022-07-27T08:20:26.695Z,15.59
2022-07-27T08:25:25.939Z,15.12
2022-07-27T08:30:27.119Z,15.82
2022-07-27T08:35:27.516Z,15.82
2022-07-27T08:40:39.564Z,15.82
2022-07-27T08:45:27.646Z,14.87
2022-07-27T08:50:29.766Z,14.87
2022-07-27T08:55:29.874Z,14.38
2022-07-27T09:00:29.074Z,14.81
2022-07-27T09:05:36.728Z,15.49
2022-07-27T09:10:31.198Z,15.49
2022-07-27T09:15:38.694Z,15.75
2022-07-27T09:20:30.302Z,15.75
2022-07-27T09:26:02.925Z,15.75
2022-07-27T09:30:31.512Z,16.16
2022-07-27T09:35:32.694Z,15.22
2022-07-27T09:40:35.870Z,15.49
2022-07-27T09:45:34.169Z,16.01
2022-07-27T09:50:35.791Z,16.01
2022-07-27T09:55:33.230Z,15.49
2022-07-27T10:00:34.452Z,16.01
2022-07-27T10:05:35.567Z,15.75
2022-07-27T10:10:36.697Z,15.75
2022-07-27T10:15:38.069Z,14.95
2022-07-27T10:20:40.233Z,15.75
2022-07-27T10:25:41.358Z,15.22
2022-07-27T10:30:40.675Z,15.49
2022-07-27T10:35:41.913Z,15.49
2022-07-27T10:40:42.031Z,15.22
2022-07-27T10:46:00.207Z,15.49
2022-07-27T10:50:42.161Z,15.75
2022-07-27T10:55:45.262Z,15.49
2022-07-27T11:00:53.131Z,15.22
2022-07-27T11:06:00.398Z,15.49
2022-07-27T11:10:47.466Z,16.16
2022-07-27T11:15:47.005Z,16.69
2022-07-27T11:20:48.173Z,16.16
2022-07-27T11:25:49.298Z,15.22
2022-07-27T11:30:50.563Z,16.69
2022-07-27T11:35:52.694Z,16.16
2022-07-27T11:40:56.970Z,16.43
2022-07-27T11:45:53.039Z,16.16
2022-07-27T11:50:53.202Z,15.89
2022-07-27T11:55:54.402Z,16.43
2022-07-27T12:00:55.574Z,16.43
2022-07-27T12:05:56.718Z,15.89
2022-07-27T12:10:57.873Z,16.54
2022-07-27T12:15:59.112Z,15.89
2022-07-27T12:21:01.290Z,16.54
2022-07-27T12:26:00.429Z,16.54
2022-07-27T12:31:01.621Z,17.47
2022-07-27T12:36:03.767Z,16.82
2022-07-27T12:41:03.995Z,16.54
2022-07-27T12:46:03.199Z,16.26
2022-07-27T12:51:05.389Z,16.26
2022-07-27T12:56:04.536Z,16.26
2022-07-27T13:01:05.760Z,15.68
2022-07-27T13:06:12.871Z,16.60
2022-07-27T13:11:07.014Z,16.60
2022-07-27T13:16:08.250Z,15.68
2022-07-27T13:21:10.405Z,16.26
2022-07-27T13:26:10.514Z,15.97
2022-07-27T13:31:09.691Z,15.97
2022-07-27T13:36:10.807Z,16.30
2022-07-27T13:41:10.919Z,16.30
2022-07-27T13:46:14.133Z,16.90
2022-07-27T13:51:15.248Z,16.60
2022-07-27T13:56:14.390Z,16.30
2022-07-27T14:01:14.730Z,15.97
2022-07-27T14:06:20.887Z,16.26
2022-07-27T14:11:15.985Z,15.97
2022-07-27T14:16:19.114Z,15.97
2022-07-27T14:21:17.265Z,15.68
2022-07-27T14:26:18.386Z,15.38
2022-07-27T14:31:19.864Z,15.38
2022-07-27T14:36:21.027Z,15.08
2022-07-27T14:41:23.144Z,15.97
2022-07-27T14:46:23.369Z,16.90
2022-07-27T14:51:21.491Z,16.30
2022-07-27T14:56:22.746Z,16.60
2022-07-27T15:01:23.961Z,16.30
2022-07-27T15:06:25.210Z,16.60
2022-07-27T15:11:27.358Z,16.30
2022-07-27T15:16:27.577Z,15.68
2022-07-27T15:21:26.672Z,15.68
2022-07-27T15:26:27.812Z,15.68
2022-07-27T15:31:28.974Z,15.38
2022-07-27T15:36:32.283Z,16.60
2022-07-27T15:41:31.651Z,15.68
2022-07-27T15:46:30.833Z,16.26
2022-07-27T15:51:32.955Z,15.97
2022-07-27T15:56:32.118Z,15.97
2022-07-27T16:01:36.035Z,16.26
2022-07-27T16:06:38.387Z,15.68
2022-07-27T16:11:34.257Z,15.68
2022-07-27T16:16:33.418Z,16.00
2022-07-27T16:21:55.005Z,16.00
2022-07-27T16:26:34.511Z,16.61
2022-07-27T16:31:35.767Z,16.61
2022-07-27T16:36:39.190Z,16.00
2022-07-27T16:41:44.270Z,16.61
2022-07-27T16:46:38.432Z,16.92
2022-07-27T16:51:37.536Z,16.30
2022-07-27T16:56:42.746Z,16.61
2022-07-27T17:01:40.975Z,16.29
2022-07-27T17:06:41.097Z,16.29
2022-07-27T17:11:41.219Z,15.69
2022-07-27T17:16:40.933Z,16.92
2022-07-27T17:21:42.157Z,16.61
2022-07-27T17:26:44.277Z,16.61
2022-07-27T17:31:44.495Z,16.29
2022-07-27T17:36:50.472Z,16.92
2022-07-27T17:41:44.590Z,16.30
2022-07-27T17:46:46.796Z,16.92
2022-07-27T17:51:55.126Z,16.61
2022-07-27T17:56:44.896Z,16.30
2022-07-27T18:01:48.577Z,16.90
2022-07-27T18:06:43.868Z,16.60
2022-07-27T18:11:44.990Z,15.97
2022-07-27T18:16:46.229Z,15.97
2022-07-27T18:21:48.342Z,16.90
2022-07-27T18:26:57.672Z,16.16
2022-07-27T18:31:51.532Z,16.82
2022-07-27T18:36:59.465Z,17.10
2022-07-27T18:41:51.584Z,16.43
2022-07-27T18:46:51.881Z,16.95
2022-07-27T18:51:50.993Z,16.95
2022-07-27T18:56:56.115Z,16.52
2022-07-27T19:01:54.381Z,16.52
2022-07-27T19:06:53.539Z,16.77
2022-07-27T19:12:09.535Z,15.82
2022-07-27T19:16:54.976Z,16.06
2022-07-27T19:21:56.111Z,16.06
2022-07-27T19:27:11.022Z,16.30
2022-07-27T19:32:19.902Z,16.05
2022-07-27T19:37:07.475Z,16.05
2022-07-27T19:41:59.998Z,16.27
2022-07-27T19:46:59.144Z,16.50
2022-07-27T19:52:00.336Z,16.27
2022-07-27T19:57:01.467Z,16.72
2022-07-27T20:02:03.730Z,16.93
2022-07-27T20:07:02.982Z,17.15
2022-07-27T20:12:04.152Z,16.40
2022-07-27T20:17:05.296Z,16.19
2022-07-27T20:22:06.418Z,16.19
2022-07-27T20:27:14.531Z,16.40
2022-07-27T20:32:08.733Z,16.61
2022-07-27T20:37:08.028Z,16.61
2022-07-27T20:42:09.121Z,16.81
2022-07-27T20:47:10.231Z,17.02
2022-07-27T20:52:11.337Z,16.44
2022-07-27T20:57:12.442Z,16.83
2022-07-27T21:02:13.734Z,17.02
2022-07-27T21:07:15.851Z,17.02
2022-07-27T21:12:14.974Z,16.83
2022-07-27T21:17:17.320Z,16.44
2022-07-27T21:22:16.500Z,17.21
2022-07-27T21:27:20.948Z,16.23
2022-07-27T21:32:19.222Z,16.23
2022-07-27T21:37:19.414Z,16.42
2022-07-27T21:42:19.538Z,16.23
2022-07-27T21:47:18.849Z,16.23
2022-07-27T21:52:20.988Z,16.23
2022-07-27T21:57:20.137Z,16.60
2022-07-27T22:02:21.396Z,16.79
2022-07-27T22:07:22.500Z,16.97
2022-07-27T22:12:23.611Z,16.79
2022-07-27T22:17:24.802Z,16.79
2022-07-27T22:22:25.914Z,16.79
2022-07-27T22:27:27.150Z,15.62
2022-07-27T22:32:28.280Z,15.44
2022-07-27T22:37:29.400Z,15.80
2022-07-27T22:42:30.490Z,15.98
2022-07-27T22:47:31.754Z,15.62
2022-07-27T22:52:33.908Z,15.44
2022-07-27T22:57:34.060Z,15.25
2022-07-27T23:02:33.227Z,15.44
2022-07-27T23:07:35.351Z,15.25
2022-07-27T23:12:34.527Z,15.25
2022-07-27T23:17:35.748Z,15.62
2022-07-27T23:23:19.887Z,15.44
2022-07-27T23:27:37.593Z,15.62
2022-07-27T23:32:38.710Z,15.62
2022-07-27T23:37:40.815Z,15.62
2022-07-27T23:42:40.947Z,15.62
2022-07-27T23:47:40.058Z,15.80
2022-07-27T23:52:41.153Z,16.16
2022-07-27T23:57:42.269Z,16.16
